createdAt,value
2023-03-11T00:00:05.669Z,35.80
2023-03-11T00:02:57.455Z,43.93
2023-03-11T00:05:48.614Z,39.33
2023-03-11T00:08:38.267Z,44.43
2023-03-11T00:11:29.490Z,40.63
2023-03-11T00:14:19.752Z,37.90
2023-03-11T00:17:09.288Z,36.57
2023-03-11T00:20:22.999Z,42.40
2023-03-11T00:23:15.547Z,39.03
2023-03-11T00:26:05.568Z,51.23
2023-03-11T00:32:34.632Z,36.20
2023-03-11T00:35:27.930Z,39.87
2023-03-11T00:38:24.386Z,34.33
2023-03-11T00:41:13.989Z,29.70
2023-03-11T00:44:04.994Z,27.83
2023-03-11T00:46:54.891Z,36.37
2023-03-11T00:49:44.669Z,31.10
2023-03-11T00:52:34.601Z,31.20
2023-03-11T00:55:27.127Z,30.00
2023-03-11T00:58:16.684Z,33.13
2023-03-11T01:01:12.137Z,30.80
2023-03-11T01:04:02.020Z,29.67
2023-03-11T01:06:51.649Z,25.47
2023-03-11T01:09:41.414Z,24.40
2023-03-11T01:12:31.096Z,24.13
2023-03-11T01:15:23.234Z,27.70
2023-03-11T01:18:14.554Z,32.27
2023-03-11T01:21:04.177Z,29.40
2023-03-11T01:23:53.975Z,29.57
2023-03-11T01:26:43.686Z,27.57
2023-03-11T01:29:33.387Z,29.07
2023-03-11T01:32:23.095Z,25.07
2023-03-11T01:35:15.383Z,29.53
2023-03-11T01:38:05.024Z,26.70
2023-03-11T01:40:54.763Z,26.20
2023-03-11T01:43:56.763Z,25.70
2023-03-11T01:47:19.277Z,27.47
2023-03-11T01:50:15.245Z,20.73
2023-03-11T01:53:06.221Z,18.77
2023-03-11T01:55:56.092Z,22.73
2023-03-11T01:58:50.421Z,20.13
2023-03-11T02:01:45.654Z,22.07
2023-03-11T02:04:38.129Z,21.30
2023-03-11T02:07:29.429Z,21.90
2023-03-11T02:13:14.635Z,20.90
2023-03-11T02:34:57.079Z,29.07
2023-03-11T02:37:31.890Z,21.23
2023-03-11T02:43:00.930Z,25.37
2023-03-11T02:45:33.248Z,28.47
2023-03-11T02:55:02.186Z,22.03
2023-03-11T03:01:18.489Z,25.23
2023-03-11T03:06:29.776Z,29.90
2023-03-11T03:09:08.189Z,25.03
2023-03-11T03:17:23.241Z,24.10
2023-03-11T03:20:14.904Z,21.43
2023-03-11T03:23:05.193Z,25.30
2023-03-11T03:25:57.524Z,22.23
2023-03-11T03:28:47.214Z,24.30
2023-03-11T03:31:36.837Z,27.13
2023-03-11T03:34:27.953Z,23.83
2023-03-11T03:37:17.453Z,24.40
2023-03-11T03:40:09.749Z,24.23
2023-03-11T03:42:59.583Z,23.57
2023-03-11T03:45:58.151Z,25.73
2023-03-11T03:48:47.693Z,22.40
2023-03-11T03:51:41.810Z,24.33
2023-03-11T03:54:31.427Z,25.10
2023-03-11T03:57:20.885Z,24.23
2023-03-11T04:00:11.888Z,24.47
2023-03-11T04:03:01.813Z,26.43
2023-03-11T04:05:51.288Z,23.80
2023-03-11T04:08:42.707Z,25.27
2023-03-11T04:11:33.309Z,21.77
2023-03-11T04:14:23.010Z,21.10
2023-03-11T04:17:13.369Z,25.23
2023-03-11T04:20:03.130Z,23.00
2023-03-11T04:22:52.609Z,20.00
2023-03-11T04:25:43.838Z,23.03
2023-03-11T04:28:33.529Z,42.73
2023-03-11T04:31:23.202Z,24.83
2023-03-11T04:34:13.606Z,19.90
2023-03-11T04:37:03.344Z,23.23
2023-03-11T04:39:54.344Z,20.50
2023-03-11T04:42:45.660Z,20.90
2023-03-11T04:45:37.075Z,19.50
2023-03-11T04:48:27.782Z,18.53
2023-03-11T04:51:17.139Z,20.03
2023-03-11T04:54:06.965Z,19.27
2023-03-11T04:56:56.421Z,19.13
2023-03-11T04:59:47.602Z,20.37
2023-03-11T05:02:37.201Z,17.07
2023-03-11T05:05:27.183Z,17.30
2023-03-11T05:08:16.786Z,15.90
2023-03-11T05:11:06.941Z,16.80
2023-03-11T05:13:56.309Z,15.27
2023-03-11T05:16:47.891Z,16.93
2023-03-11T05:19:37.530Z,18.37
2023-03-11T05:22:27.042Z,17.87
2023-03-11T05:25:17.160Z,18.60
2023-03-11T05:28:07.311Z,17.40
2023-03-11T05:31:35.431Z,17.33
2023-03-11T05:34:27.098Z,18.03
2023-03-11T05:37:16.872Z,16.47
2023-03-11T05:40:08.582Z,16.97
2023-03-11T05:42:58.207Z,17.73
2023-03-11T05:45:47.854Z,15.47
2023-03-11T05:48:38.847Z,17.43
2023-03-11T05:51:30.407Z,16.07
2023-03-11T05:54:20.653Z,15.23
2023-03-11T05:57:10.193Z,19.87
2023-03-11T06:00:00.015Z,25.57
2023-03-11T06:02:49.525Z,18.90
2023-03-11T06:05:39.034Z,15.30
2023-03-11T06:08:31.191Z,18.30
2023-03-11T06:11:20.769Z,15.07
2023-03-11T06:14:13.128Z,15.27
2023-03-11T06:17:02.589Z,15.00
2023-03-11T06:19:52.657Z,16.03
2023-03-11T06:22:42.129Z,16.80
2023-03-11T06:25:33.366Z,14.37
2023-03-11T06:28:23.014Z,22.80
2023-03-11T06:31:14.059Z,15.00
2023-03-11T06:34:03.886Z,14.73
2023-03-11T06:36:55.139Z,13.40
2023-03-11T06:39:45.187Z,15.10
2023-03-11T06:42:36.222Z,15.70
2023-03-11T06:45:25.795Z,15.23
2023-03-11T06:48:15.735Z,27.03
2023-03-11T06:51:05.730Z,13.50
2023-03-11T06:53:55.835Z,14.00
2023-03-11T06:56:45.324Z,13.63
2023-03-11T06:59:37.152Z,14.23
2023-03-11T07:02:26.643Z,13.97
2023-03-11T07:05:16.648Z,13.70
2023-03-11T07:08:06.413Z,14.27
2023-03-11T07:11:04.044Z,14.37
2023-03-11T07:13:53.768Z,15.03
2023-03-11T07:16:45.533Z,18.10
2023-03-11T07:19:35.468Z,17.20
2023-03-11T07:22:24.944Z,19.97
2023-03-11T07:25:14.716Z,20.80
2023-03-11T07:28:04.244Z,19.30
2023-03-11T07:30:54.193Z,23.87
2023-03-11T07:33:46.287Z,22.43
2023-03-11T07:36:36.204Z,24.17
2023-03-11T07:39:25.888Z,21.83
2023-03-11T07:42:15.451Z,21.30
2023-03-11T07:45:05.431Z,23.63
2023-03-11T07:47:55.160Z,21.53
2023-03-11T07:50:46.166Z,22.00
2023-03-11T07:53:36.556Z,24.10
2023-03-11T07:56:27.244Z,21.13
2023-03-11T07:59:17.296Z,19.67
2023-03-11T08:02:07.061Z,20.33
2023-03-11T08:04:58.401Z,20.10
2023-03-11T08:07:49.767Z,18.83
2023-03-11T08:10:39.511Z,19.33
2023-03-11T08:13:29.150Z,18.17
2023-03-11T08:16:21.184Z,18.90
2023-03-11T08:19:13.918Z,21.23
2023-03-11T08:22:04.346Z,19.10
2023-03-11T08:24:56.834Z,18.77
2023-03-11T08:27:46.782Z,26.50
2023-03-11T08:30:36.723Z,19.60
2023-03-11T08:33:26.383Z,18.57
2023-03-11T08:36:16.144Z,18.13
2023-03-11T08:39:06.030Z,19.13
2023-03-11T08:41:57.462Z,17.93
2023-03-11T08:44:47.005Z,17.03
2023-03-11T08:47:37.221Z,18.57
2023-03-11T08:50:26.949Z,19.93
2023-03-11T08:53:17.268Z,18.33
2023-03-11T08:56:07.633Z,19.50
2023-03-11T08:58:58.948Z,20.00
2023-03-11T09:01:48.604Z,20.13
2023-03-11T09:04:38.373Z,18.43
2023-03-11T09:07:28.063Z,22.13
2023-03-11T09:10:18.699Z,19.13
2023-03-11T09:13:08.627Z,29.07
2023-03-11T09:15:59.747Z,23.80
2023-03-11T09:18:49.514Z,24.43
2023-03-11T09:21:39.815Z,24.23
2023-03-11T09:24:30.001Z,22.30
2023-03-11T09:27:19.662Z,18.90
2023-03-11T09:30:10.857Z,20.27
2023-03-11T09:33:02.066Z,16.53
2023-03-11T09:35:51.557Z,15.80
2023-03-11T09:38:41.650Z,16.43
2023-03-11T09:41:55.342Z,14.83
2023-03-11T09:45:01.688Z,15.10
2023-03-11T09:48:08.503Z,13.97
2023-03-11T09:51:08.632Z,13.87
2023-03-11T09:54:05.926Z,13.23
2023-03-11T09:56:55.807Z,12.90
2023-03-11T09:59:47.043Z,10.63
2023-03-11T10:02:39.835Z,9.07
2023-03-11T10:05:34.161Z,7.57
2023-03-11T10:08:31.000Z,8.03
2023-03-11T10:11:47.641Z,6.97
2023-03-11T10:15:04.162Z,6.60
2023-03-11T10:18:22.187Z,6.00
2023-03-11T10:21:24.576Z,5.73
2023-03-11T10:24:30.383Z,5.83
2023-03-11T10:27:25.341Z,5.70
2023-03-11T10:30:21.926Z,4.37
2023-03-11T10:33:21.336Z,5.10
2023-03-11T10:36:19.516Z,4.83
2023-03-11T10:39:12.735Z,4.70
2023-03-11T10:42:04.748Z,4.27
2023-03-11T10:44:54.365Z,4.20
2023-03-11T10:47:44.472Z,3.90
2023-03-11T10:50:36.944Z,3.50
2023-03-11T10:53:28.284Z,3.90
2023-03-11T10:56:28.603Z,2.90
2023-03-11T10:59:26.971Z,3.60
2023-03-11T11:02:28.070Z,3.77
2023-03-11T11:05:34.219Z,6.57
2023-03-11T11:08:24.120Z,6.70
2023-03-11T11:11:24.044Z,2.90
2023-03-11T11:14:13.679Z,2.47
2023-03-11T11:17:03.506Z,2.43
2023-03-11T11:19:55.895Z,2.50
2023-03-11T11:22:53.046Z,2.07
2023-03-11T11:25:45.894Z,1.90
2023-03-11T11:28:37.915Z,2.80
2023-03-11T11:31:28.332Z,3.00
2023-03-11T11:34:31.301Z,4.00
2023-03-11T11:37:22.193Z,2.73
2023-03-11T11:40:30.213Z,2.93
2023-03-11T11:43:21.852Z,3.27
2023-03-11T11:46:22.566Z,2.80
2023-03-11T11:49:21.287Z,3.60
2023-03-11T11:52:16.022Z,7.93
2023-03-11T11:55:11.009Z,6.20
2023-03-11T11:58:01.009Z,8.40
2023-03-11T12:01:06.408Z,14.67
2023-03-11T12:04:31.502Z,12.40
2023-03-11T12:07:31.710Z,8.53
2023-03-11T12:10:29.202Z,10.33
2023-03-11T12:13:50.122Z,14.70
2023-03-11T12:16:44.956Z,13.20
2023-03-11T12:19:43.031Z,6.93
2023-03-11T12:23:03.866Z,6.80
2023-03-11T12:26:07.684Z,8.73
2023-03-11T12:29:00.204Z,12.97
2023-03-11T12:31:50.135Z,13.13
2023-03-11T12:34:41.970Z,4.97
2023-03-11T12:37:32.464Z,5.97
2023-03-11T12:41:07.343Z,9.13
2023-03-11T12:44:07.024Z,20.43
2023-03-11T12:47:25.392Z,18.50
2023-03-11T12:50:42.064Z,13.27
2023-03-11T12:53:49.183Z,13.07
2023-03-11T12:56:42.691Z,12.17
2023-03-11T13:00:07.963Z,12.97
2023-03-11T13:03:25.226Z,9.40
2023-03-11T13:06:39.385Z,13.40
2023-03-11T13:09:31.414Z,8.43
2023-03-11T13:12:43.661Z,9.73
2023-03-11T13:15:42.297Z,11.33
2023-03-11T13:18:33.528Z,5.57
2023-03-11T13:21:42.610Z,9.70
2023-03-11T13:24:53.018Z,7.00
2023-03-11T13:27:50.249Z,8.13
2023-03-11T13:30:48.366Z,10.43
2023-03-11T13:33:50.294Z,10.20
2023-03-11T13:36:55.638Z,6.33
2023-03-11T13:40:14.811Z,6.33
2023-03-11T13:43:07.799Z,8.20
2023-03-11T13:46:02.507Z,10.30
2023-03-11T13:48:57.365Z,6.20
2023-03-11T13:51:50.871Z,4.03
2023-03-11T13:54:46.953Z,4.83
2023-03-11T13:57:38.617Z,4.30
2023-03-11T14:00:30.090Z,4.63
2023-03-11T14:03:22.631Z,5.23
2023-03-11T14:06:19.458Z,4.80
2023-03-11T14:09:21.862Z,5.63
2023-03-11T14:12:13.098Z,3.13
2023-03-11T14:15:07.318Z,3.83
2023-03-11T14:18:28.478Z,4.87
2023-03-11T14:21:21.436Z,4.40
2023-03-11T14:24:22.308Z,4.30
2023-03-11T14:27:12.190Z,4.70
2023-03-11T14:30:02.720Z,4.33
2023-03-11T14:33:02.086Z,6.13
2023-03-11T14:35:55.618Z,4.67
2023-03-11T14:38:48.266Z,4.80
2023-03-11T14:41:39.939Z,7.07
2023-03-11T14:44:31.137Z,4.43
2023-03-11T14:47:30.544Z,4.30
2023-03-11T14:50:23.011Z,3.57
2023-03-11T14:53:20.672Z,4.60
2023-03-11T14:56:18.003Z,4.60
2023-03-11T14:59:14.484Z,4.30
2023-03-11T15:02:37.314Z,3.37
2023-03-11T15:05:35.827Z,5.43
2023-03-11T15:08:30.629Z,7.53
2023-03-11T15:11:26.401Z,6.90
2023-03-11T15:14:24.387Z,6.57
2023-03-11T15:17:34.898Z,6.47
2023-03-11T15:20:31.578Z,7.80
2023-03-11T15:23:24.583Z,7.07
2023-03-11T15:26:22.444Z,8.83
2023-03-11T15:29:17.871Z,10.27
2023-03-11T15:32:40.141Z,5.47
2023-03-11T15:35:31.300Z,7.80
2023-03-11T15:38:24.896Z,7.63
2023-03-11T15:41:17.835Z,7.57
2023-03-11T15:44:08.732Z,11.03
2023-03-11T15:47:00.133Z,12.90
2023-03-11T15:49:52.862Z,14.47
2023-03-11T15:52:42.826Z,9.50
2023-03-11T15:55:33.552Z,10.13
2023-03-11T15:58:23.645Z,12.37
2023-03-11T16:01:14.616Z,14.17
2023-03-11T16:04:07.702Z,11.63
2023-03-11T16:07:07.875Z,10.23
2023-03-11T16:09:58.202Z,11.67
2023-03-11T16:12:49.469Z,12.70
2023-03-11T16:15:42.943Z,14.20
2023-03-11T16:18:34.172Z,11.60
2023-03-11T16:21:30.210Z,11.30
2023-03-11T16:24:30.309Z,14.80
2023-03-11T16:27:22.918Z,8.27
2023-03-11T16:30:17.316Z,11.40
2023-03-11T16:33:08.271Z,13.40
2023-03-11T16:35:59.249Z,7.53
2023-03-11T16:38:51.209Z,12.20
2023-03-11T16:41:48.241Z,7.00
2023-03-11T16:44:38.710Z,8.40
2023-03-11T16:47:29.520Z,15.17
2023-03-11T16:50:21.445Z,11.40
2023-03-11T16:53:14.722Z,14.50
2023-03-11T16:56:05.892Z,13.00
2023-03-11T16:58:57.795Z,12.20
2023-03-11T17:01:48.853Z,14.70
2023-03-11T17:04:40.509Z,14.33
2023-03-11T17:07:31.563Z,10.57
2023-03-11T17:10:25.436Z,14.40
2023-03-11T17:13:19.070Z,10.80
2023-03-11T17:16:11.672Z,8.13
2023-03-11T17:19:05.039Z,3.23
2023-03-11T17:21:57.404Z,2.90
2023-03-11T17:24:48.660Z,4.53
2023-03-11T17:27:41.163Z,4.03
2023-03-11T17:30:37.261Z,6.43
2023-03-11T17:33:31.380Z,10.90
2023-03-11T17:36:26.806Z,7.27
2023-03-11T17:39:18.573Z,6.87
2023-03-11T17:42:09.810Z,4.60
2023-03-11T17:45:00.671Z,2.37
2023-03-11T17:47:51.156Z,3.40
2023-03-11T17:50:44.551Z,5.40
2023-03-11T17:53:37.408Z,5.00
2023-03-11T17:56:29.897Z,5.00
2023-03-11T17:59:22.173Z,2.00
2023-03-11T18:02:19.170Z,2.07
2023-03-11T18:05:11.228Z,2.37
2023-03-11T18:08:09.258Z,2.20
2023-03-11T18:11:03.115Z,2.03
2023-03-11T18:13:55.671Z,2.00
2023-03-11T18:16:48.167Z,1.70
2023-03-11T18:19:44.242Z,1.40
2023-03-11T18:22:37.232Z,2.10
2023-03-11T18:25:33.561Z,2.27
2023-03-11T18:28:26.531Z,1.80
2023-03-11T18:31:20.212Z,1.53
2023-03-11T18:34:15.482Z,1.57
2023-03-11T18:37:08.249Z,2.50
2023-03-11T18:40:01.332Z,2.00
2023-03-11T18:42:55.418Z,2.20
2023-03-11T18:45:47.029Z,1.70
2023-03-11T18:48:39.096Z,1.70
2023-03-11T18:51:31.956Z,1.80
2023-03-11T18:54:23.811Z,1.93
2023-03-11T18:57:16.647Z,1.10
2023-03-11T19:00:14.461Z,1.30
2023-03-11T19:03:05.950Z,1.90
2023-03-11T19:05:58.923Z,1.60
2023-03-11T19:08:53.572Z,1.77
2023-03-11T19:11:46.422Z,1.13
2023-03-11T19:14:39.112Z,1.33
2023-03-11T19:17:32.788Z,3.60
2023-03-11T19:20:23.880Z,4.53
2023-03-11T19:23:14.792Z,1.80
2023-03-11T19:26:05.929Z,1.50
2023-03-11T19:28:57.466Z,1.03
2023-03-11T19:31:49.622Z,1.03
2023-03-11T19:34:43.346Z,2.57
2023-03-11T19:37:34.423Z,2.13
2023-03-11T19:40:25.216Z,2.33
2023-03-11T19:43:19.898Z,1.60
2023-03-11T19:46:14.695Z,1.30
2023-03-11T19:49:07.270Z,2.10
2023-03-11T19:52:00.826Z,3.60
2023-03-11T19:54:56.423Z,3.37
2023-03-11T19:57:50.649Z,3.50
2023-03-11T20:00:44.256Z,1.50
2023-03-11T20:03:36.658Z,1.53
2023-03-11T20:06:28.464Z,0.50
2023-03-11T20:09:23.663Z,1.77
2023-03-11T20:12:17.724Z,1.80
2023-03-11T20:15:10.065Z,1.83
2023-03-11T20:18:02.403Z,1.13
2023-03-11T20:20:55.248Z,1.80
2023-03-11T20:23:50.900Z,1.60
2023-03-11T20:26:49.311Z,1.70
2023-03-11T20:29:42.340Z,1.30
2023-03-11T20:32:34.691Z,1.73
2023-03-11T20:35:27.979Z,1.60
2023-03-11T20:38:19.032Z,1.87
2023-03-11T20:41:10.885Z,1.60
2023-03-11T20:44:04.850Z,1.40
2023-03-11T20:47:00.193Z,1.60
2023-03-11T20:49:51.527Z,1.80
2023-03-11T20:52:41.969Z,1.80
2023-03-11T20:55:33.026Z,1.77
2023-03-11T20:58:27.922Z,1.57
2023-03-11T21:01:22.252Z,1.60
2023-03-11T21:04:15.987Z,1.40
2023-03-11T21:07:06.681Z,1.73
2023-03-11T21:09:58.397Z,1.50
2023-03-11T21:12:49.269Z,1.73
2023-03-11T21:15:39.636Z,1.47
2023-03-11T21:18:32.273Z,1.20
2023-03-11T21:21:23.317Z,2.00
2023-03-11T21:24:13.319Z,1.47
2023-03-11T21:27:04.015Z,1.43
2023-03-11T21:29:54.266Z,1.80
2023-03-11T21:32:44.191Z,1.67
2023-03-11T21:35:35.871Z,1.63
2023-03-11T21:38:26.908Z,1.67
2023-03-11T21:41:18.476Z,1.70
2023-03-11T21:44:08.369Z,2.13
2023-03-11T21:46:58.934Z,1.73
2023-03-11T21:49:48.770Z,1.67
2023-03-11T21:52:39.815Z,1.83
2023-03-11T21:55:29.893Z,2.03
2023-03-11T21:58:19.525Z,1.80
2023-03-11T22:01:10.500Z,1.70
2023-03-11T22:04:00.257Z,2.03
2023-03-11T22:06:50.292Z,1.90
2023-03-11T22:09:41.380Z,2.00
2023-03-11T22:12:31.311Z,1.00
2023-03-11T22:15:21.010Z,1.77
2023-03-11T22:18:10.965Z,1.97
2023-03-11T22:21:00.623Z,2.70
2023-03-11T22:23:51.035Z,2.33
2023-03-11T22:26:41.987Z,2.33
2023-03-11T22:29:31.640Z,2.13
2023-03-11T22:32:21.223Z,2.00
2023-03-11T22:35:11.546Z,1.40
2023-03-11T22:38:01.174Z,1.80
2023-03-11T22:40:50.835Z,1.70
2023-03-11T22:43:42.407Z,1.67
2023-03-11T22:46:32.048Z,1.80
2023-03-11T22:49:21.907Z,1.50
2023-03-11T22:52:11.589Z,1.90
2023-03-11T22:55:01.149Z,2.30
2023-03-11T22:57:50.954Z,2.57
2023-03-11T23:00:44.618Z,2.30
2023-03-11T23:03:34.530Z,1.93
2023-03-11T23:06:24.567Z,2.20
2023-03-11T23:09:14.129Z,2.23
2023-03-11T23:12:04.612Z,1.80
2023-03-11T23:14:54.069Z,1.90
2023-03-11T23:17:45.907Z,2.10
2023-03-11T23:20:37.549Z,2.27
2023-03-11T23:23:27.038Z,2.13
2023-03-11T23:26:17.816Z,1.93
2023-03-11T23:29:07.482Z,2.20
2023-03-11T23:31:56.907Z,2.67
2023-03-11T23:34:48.037Z,2.60
2023-03-11T23:37:37.709Z,2.50
2023-03-11T23:40:27.676Z,2.73
2023-03-11T23:43:17.091Z,2.70
2023-03-11T23:46:07.297Z,2.93
2023-03-11T23:48:56.757Z,2.33
2023-03-11T23:51:47.637Z,2.67
2023-03-11T23:54:38.171Z,2.80
2023-03-11T23:57:27.732Z,2.77
